Hardenville, Missouri
Current Conditions -  °F | °C
As of 1:53 PM on Thursday 29 Jan 2015 (Local Time) from KBPK Reporting Station
Overcast Overcast  
Wind Chill: 35°   Ceiling: 2500
Heat Index: 41°   Visibility: 9mi
Dew Point: 31°   Wind: 10mph
Humidity: 67%   Direction: 330°NNW
Pressure: 30.26"   Gusts: 30mph
Location:  36.59°N, 92.37°W
Report Text: KBPK 291953Z AUTO 33009G26KT 300V360 9SM OVC025 05/M01 A3026 RMK AO2 PK WND 33026/1947 SLP249 T00501006
Loading
Personal Weather Stations






























Interactive Weather Map New forecast layout! Learn more

10-Day Weather Forecast

Advertisements
Track Severe Weather on mobile